sensor_id;sensor_type;location;lat;lon;timestamp;P1;durP1;ratioP1;P2;durP2;ratioP2
3543;SDS011;1786;52.870;9.578;2023-02-23T00:01:33;21.40;;;13.03;;
3543;SDS011;1786;52.870;9.578;2023-02-23T00:03:59;27.10;;;12.80;;
3543;SDS011;1786;52.870;9.578;2023-02-23T00:06:27;21.67;;;13.20;;
3543;SDS011;1786;52.870;9.578;2023-02-23T00:08:54;19.77;;;13.30;;
3543;SDS011;1786;52.870;9.578;2023-02-23T00:11:20;18.27;;;11.80;;
3543;SDS011;1786;52.870;9.578;2023-02-23T00:13:47;20.10;;;12.20;;
3543;SDS011;1786;52.870;9.578;2023-02-23T00:16:16;19.23;;;13.50;;
3543;SDS011;1786;52.870;9.578;2023-02-23T00:18:47;19.80;;;12.10;;
3543;SDS011;1786;52.870;9.578;2023-02-23T00:21:17;16.93;;;12.53;;
3543;SDS011;1786;52.870;9.578;2023-02-23T00:23:48;18.90;;;13.00;;
3543;SDS011;1786;52.870;9.578;2023-02-23T00:26:16;19.00;;;13.03;;
3543;SDS011;1786;52.870;9.578;2023-02-23T00:28:42;19.50;;;12.57;;
3543;SDS011;1786;52.870;9.578;2023-02-23T00:31:09;20.77;;;12.97;;
3543;SDS011;1786;52.870;9.578;2023-02-23T00:33:36;18.13;;;11.70;;
3543;SDS011;1786;52.870;9.578;2023-02-23T00:36:06;20.60;;;13.50;;
3543;SDS011;1786;52.870;9.578;2023-02-23T00:38:33;23.97;;;12.70;;
3543;SDS011;1786;52.870;9.578;2023-02-23T00:41:03;20.50;;;13.00;;
3543;SDS011;1786;52.870;9.578;2023-02-23T00:43:35;18.70;;;12.87;;
3543;SDS011;1786;52.870;9.578;2023-02-23T00:46:02;21.97;;;12.13;;
3543;SDS011;1786;52.870;9.578;2023-02-23T00:48:31;18.90;;;10.50;;
3543;SDS011;1786;52.870;9.578;2023-02-23T00:51:02;17.10;;;11.80;;
3543;SDS011;1786;52.870;9.578;2023-02-23T00:53:29;17.10;;;10.80;;
3543;SDS011;1786;52.870;9.578;2023-02-23T00:55:56;15.87;;;11.33;;
3543;SDS011;1786;52.870;9.578;2023-02-23T00:58:23;17.97;;;11.17;;
3543;SDS011;1786;52.870;9.578;2023-02-23T01:00:49;26.53;;;11.60;;
3543;SDS011;1786;52.870;9.578;2023-02-23T01:03:19;21.03;;;11.23;;
3543;SDS011;1786;52.870;9.578;2023-02-23T01:05:45;18.47;;;11.40;;
3543;SDS011;1786;52.870;9.578;2023-02-23T01:08:15;14.60;;;10.30;;
3543;SDS011;1786;52.870;9.578;2023-02-23T01:10:42;14.87;;;9.87;;
3543;SDS011;1786;52.870;9.578;2023-02-23T01:13:10;16.27;;;10.50;;
3543;SDS011;1786;52.870;9.578;2023-02-23T01:15:40;15.90;;;10.90;;
3543;SDS011;1786;52.870;9.578;2023-02-23T01:18:08;15.43;;;10.33;;
3543;SDS011;1786;52.870;9.578;2023-02-23T01:20:36;14.17;;;9.90;;
3543;SDS011;1786;52.870;9.578;2023-02-23T01:23:03;16.13;;;10.07;;
3543;SDS011;1786;52.870;9.578;2023-02-23T01:25:31;13.60;;;9.13;;
3543;SDS011;1786;52.870;9.578;2023-02-23T01:27:59;16.13;;;10.97;;
3543;SDS011;1786;52.870;9.578;2023-02-23T01:30:25;18.67;;;11.50;;
3543;SDS011;1786;52.870;9.578;2023-02-23T01:32:51;13.60;;;9.80;;
3543;SDS011;1786;52.870;9.578;2023-02-23T01:35:20;12.43;;;8.90;;
3543;SDS011;1786;52.870;9.578;2023-02-23T01:37:48;12.97;;;9.70;;
3543;SDS011;1786;52.870;9.578;2023-02-23T01:40:16;16.17;;;10.07;;
3543;SDS011;1786;52.870;9.578;2023-02-23T01:42:43;14.90;;;10.17;;
3543;SDS011;1786;52.870;9.578;2023-02-23T01:47:43;16.77;;;10.30;;
3543;SDS011;1786;52.870;9.578;2023-02-23T01:50:09;17.37;;;12.10;;
3543;SDS011;1786;52.870;9.578;2023-02-23T01:52:37;15.97;;;10.27;;
3543;SDS011;1786;52.870;9.578;2023-02-23T01:55:05;14.63;;;10.83;;
3543;SDS011;1786;52.870;9.578;2023-02-23T01:57:31;19.87;;;12.07;;
3543;SDS011;1786;52.870;9.578;2023-02-23T01:59:57;17.13;;;11.37;;
3543;SDS011;1786;52.870;9.578;2023-02-23T02:02:25;18.17;;;13.57;;
3543;SDS011;1786;52.870;9.578;2023-02-23T02:04:59;25.33;;;14.00;;
3543;SDS011;1786;52.870;9.578;2023-02-23T02:07:27;24.70;;;14.33;;
3543;SDS011;1786;52.870;9.578;2023-02-23T02:09:56;22.47;;;13.67;;
3543;SDS011;1786;52.870;9.578;2023-02-23T02:12:39;31.47;;;16.50;;
3543;SDS011;1786;52.870;9.578;2023-02-23T02:15:07;24.00;;;15.00;;
3543;SDS011;1786;52.870;9.578;2023-02-23T02:17:58;28.60;;;16.47;;
3543;SDS011;1786;52.870;9.578;2023-02-23T02:20:32;24.40;;;15.23;;
3543;SDS011;1786;52.870;9.578;2023-02-23T02:26:38;35.30;;;15.23;;
3543;SDS011;1786;52.870;9.578;2023-02-23T02:31:37;25.80;;;15.23;;
3543;SDS011;1786;52.870;9.578;2023-02-23T02:44:54;21.80;;;12.20;;
3543;SDS011;1786;52.870;9.578;2023-02-23T02:47:27;18.77;;;11.40;;
3543;SDS011;1786;52.870;9.578;2023-02-23T02:50:02;18.17;;;12.30;;
3543;SDS011;1786;52.870;9.578;2023-02-23T02:52:32;21.83;;;13.23;;
3543;SDS011;1786;52.870;9.578;2023-02-23T02:55:12;24.97;;;13.60;;
3543;SDS011;1786;52.870;9.578;2023-02-23T02:57:40;23.23;;;13.17;;
3543;SDS011;1786;52.870;9.578;2023-02-23T03:00:11;32.30;;;15.10;;
3543;SDS011;1786;52.870;9.578;2023-02-23T03:02:57;24.27;;;14.90;;
3543;SDS011;1786;52.870;9.578;2023-02-23T03:05:47;25.17;;;15.47;;
3543;SDS011;1786;52.870;9.578;2023-02-23T03:08:36;24.63;;;15.00;;
3543;SDS011;1786;52.870;9.578;2023-02-23T03:11:23;25.80;;;16.47;;
3543;SDS011;1786;52.870;9.578;2023-02-23T03:14:31;21.97;;;15.07;;
3543;SDS011;1786;52.870;9.578;2023-02-23T03:17:21;28.97;;;17.17;;
3543;SDS011;1786;52.870;9.578;2023-02-23T03:23:16;22.47;;;14.80;;
3543;SDS011;1786;52.870;9.578;2023-02-23T03:26:08;22.43;;;14.73;;
3543;SDS011;1786;52.870;9.578;2023-02-23T03:31:45;24.10;;;15.50;;
3543;SDS011;1786;52.870;9.578;2023-02-23T03:34:38;25.90;;;15.70;;
3543;SDS011;1786;52.870;9.578;2023-02-23T03:40:21;22.20;;;14.13;;
3543;SDS011;1786;52.870;9.578;2023-02-23T03:43:09;31.37;;;14.90;;
3543;SDS011;1786;52.870;9.578;2023-02-23T03:45:56;25.70;;;15.50;;
3543;SDS011;1786;52.870;9.578;2023-02-23T03:48:43;21.03;;;16.40;;
3543;SDS011;1786;52.870;9.578;2023-02-23T03:51:29;23.43;;;15.97;;
3543;SDS011;1786;52.870;9.578;2023-02-23T03:54:16;21.73;;;14.97;;
3543;SDS011;1786;52.870;9.578;2023-02-23T03:57:03;22.03;;;15.70;;
3543;SDS011;1786;52.870;9.578;2023-02-23T03:59:52;28.47;;;16.07;;
3543;SDS011;1786;52.870;9.578;2023-02-23T04:02:42;24.87;;;16.97;;
3543;SDS011;1786;52.870;9.578;2023-02-23T04:05:29;24.83;;;17.97;;
3543;SDS011;1786;52.870;9.578;2023-02-23T04:08:16;26.50;;;18.00;;
3543;SDS011;1786;52.870;9.578;2023-02-23T04:11:14;23.93;;;15.70;;
3543;SDS011;1786;52.870;9.578;2023-02-23T04:14:03;23.20;;;16.10;;
3543;SDS011;1786;52.870;9.578;2023-02-23T04:16:30;22.20;;;16.07;;
3543;SDS011;1786;52.870;9.578;2023-02-23T04:18:58;29.07;;;17.30;;
3543;SDS011;1786;52.870;9.578;2023-02-23T04:21:24;28.70;;;15.90;;
3543;SDS011;1786;52.870;9.578;2023-02-23T04:23:51;25.47;;;17.53;;
3543;SDS011;1786;52.870;9.578;2023-02-23T04:26:20;25.73;;;16.67;;
3543;SDS011;1786;52.870;9.578;2023-02-23T04:28:47;24.60;;;17.87;;
3543;SDS011;1786;52.870;9.578;2023-02-23T04:31:13;28.73;;;18.40;;
3543;SDS011;1786;52.870;9.578;2023-02-23T04:33:40;32.20;;;19.33;;
3543;SDS011;1786;52.870;9.578;2023-02-23T04:36:06;27.20;;;17.90;;
3543;SDS011;1786;52.870;9.578;2023-02-23T04:38:33;28.07;;;19.13;;
3543;SDS011;1786;52.870;9.578;2023-02-23T04:40:59;27.27;;;18.70;;
3543;SDS011;1786;52.870;9.578;2023-02-23T04:43:26;29.87;;;19.60;;
3543;SDS011;1786;52.870;9.578;2023-02-23T04:45:52;29.17;;;19.30;;
3543;SDS011;1786;52.870;9.578;2023-02-23T04:48:18;27.60;;;19.23;;
3543;SDS011;1786;52.870;9.578;2023-02-23T04:50:45;33.70;;;20.00;;
3543;SDS011;1786;52.870;9.578;2023-02-23T04:53:12;30.93;;;20.70;;
3543;SDS011;1786;52.870;9.578;2023-02-23T04:55:57;35.53;;;18.53;;
3543;SDS011;1786;52.870;9.578;2023-02-23T04:58:24;27.13;;;18.37;;
3543;SDS011;1786;52.870;9.578;2023-02-23T05:00:50;33.73;;;21.07;;
3543;SDS011;1786;52.870;9.578;2023-02-23T05:03:17;34.47;;;21.43;;
3543;SDS011;1786;52.870;9.578;2023-02-23T05:05:43;33.67;;;21.37;;
3543;SDS011;1786;52.870;9.578;2023-02-23T05:08:10;35.60;;;19.20;;
3543;SDS011;1786;52.870;9.578;2023-02-23T05:10:36;28.17;;;19.03;;
3543;SDS011;1786;52.870;9.578;2023-02-23T05:13:05;31.07;;;19.00;;
3543;SDS011;1786;52.870;9.578;2023-02-23T05:15:31;37.23;;;19.60;;
3543;SDS011;1786;52.870;9.578;2023-02-23T05:17:58;30.53;;;19.60;;
3543;SDS011;1786;52.870;9.578;2023-02-23T05:20:25;27.73;;;19.10;;
3543;SDS011;1786;52.870;9.578;2023-02-23T05:22:52;27.20;;;19.17;;
3543;SDS011;1786;52.870;9.578;2023-02-23T05:25:39;26.73;;;18.60;;
3543;SDS011;1786;52.870;9.578;2023-02-23T05:28:24;26.33;;;18.20;;
3543;SDS011;1786;52.870;9.578;2023-02-23T05:30:51;23.10;;;17.23;;
3543;SDS011;1786;52.870;9.578;2023-02-23T05:33:17;31.37;;;17.87;;
3543;SDS011;1786;52.870;9.578;2023-02-23T05:35:45;30.67;;;20.00;;
3543;SDS011;1786;52.870;9.578;2023-02-23T05:38:11;30.97;;;19.23;;
3543;SDS011;1786;52.870;9.578;2023-02-23T05:40:57;25.87;;;17.90;;
3543;SDS011;1786;52.870;9.578;2023-02-23T05:43:24;33.07;;;19.87;;
3543;SDS011;1786;52.870;9.578;2023-02-23T05:45:50;28.13;;;19.40;;
3543;SDS011;1786;52.870;9.578;2023-02-23T05:48:17;31.20;;;21.23;;
3543;SDS011;1786;52.870;9.578;2023-02-23T05:50:45;33.77;;;20.30;;
3543;SDS011;1786;52.870;9.578;2023-02-23T05:53:13;28.23;;;20.97;;
3543;SDS011;1786;52.870;9.578;2023-02-23T05:55:39;32.80;;;21.30;;
3543;SDS011;1786;52.870;9.578;2023-02-23T05:58:06;34.33;;;21.20;;
3543;SDS011;1786;52.870;9.578;2023-02-23T06:00:32;30.53;;;20.60;;
3543;SDS011;1786;52.870;9.578;2023-02-23T06:02:59;37.63;;;22.00;;
3543;SDS011;1786;52.870;9.578;2023-02-23T06:05:26;37.17;;;21.83;;
3543;SDS011;1786;52.870;9.578;2023-02-23T06:07:52;33.73;;;21.80;;
3543;SDS011;1786;52.870;9.578;2023-02-23T06:10:19;30.63;;;19.73;;
3543;SDS011;1786;52.870;9.578;2023-02-23T06:12:45;33.13;;;20.27;;
3543;SDS011;1786;52.870;9.578;2023-02-23T06:15:12;30.13;;;20.03;;
3543;SDS011;1786;52.870;9.578;2023-02-23T06:17:39;28.50;;;19.40;;
3543;SDS011;1786;52.870;9.578;2023-02-23T06:20:06;40.83;;;21.43;;
3543;SDS011;1786;52.870;9.578;2023-02-23T06:22:33;32.63;;;21.20;;
3543;SDS011;1786;52.870;9.578;2023-02-23T06:24:59;29.93;;;20.30;;
3543;SDS011;1786;52.870;9.578;2023-02-23T06:27:30;29.90;;;20.40;;
3543;SDS011;1786;52.870;9.578;2023-02-23T06:29:58;31.20;;;20.37;;
3543;SDS011;1786;52.870;9.578;2023-02-23T06:32:27;32.20;;;20.17;;
3543;SDS011;1786;52.870;9.578;2023-02-23T06:34:53;34.77;;;22.10;;
3543;SDS011;1786;52.870;9.578;2023-02-23T06:37:20;35.43;;;22.17;;
3543;SDS011;1786;52.870;9.578;2023-02-23T06:39:47;38.00;;;22.90;;
3543;SDS011;1786;52.870;9.578;2023-02-23T06:42:14;35.70;;;23.20;;
3543;SDS011;1786;52.870;9.578;2023-02-23T06:44:41;39.33;;;24.07;;
3543;SDS011;1786;52.870;9.578;2023-02-23T06:47:07;37.30;;;24.20;;
3543;SDS011;1786;52.870;9.578;2023-02-23T06:49:35;38.83;;;24.40;;
3543;SDS011;1786;52.870;9.578;2023-02-23T06:52:02;39.90;;;24.27;;
3543;SDS011;1786;52.870;9.578;2023-02-23T06:54:29;40.63;;;24.60;;
3543;SDS011;1786;52.870;9.578;2023-02-23T06:57:14;40.43;;;24.73;;
3543;SDS011;1786;52.870;9.578;2023-02-23T06:59:41;45.50;;;26.93;;
3543;SDS011;1786;52.870;9.578;2023-02-23T07:02:09;45.23;;;26.67;;
3543;SDS011;1786;52.870;9.578;2023-02-23T07:04:36;42.93;;;24.80;;
3543;SDS011;1786;52.870;9.578;2023-02-23T07:07:03;50.83;;;27.90;;
3543;SDS011;1786;52.870;9.578;2023-02-23T07:09:29;43.47;;;25.87;;
3543;SDS011;1786;52.870;9.578;2023-02-23T07:11:57;43.53;;;25.50;;
3543;SDS011;1786;52.870;9.578;2023-02-23T07:14:24;41.67;;;25.10;;
3543;SDS011;1786;52.870;9.578;2023-02-23T07:16:52;35.77;;;22.47;;
3543;SDS011;1786;52.870;9.578;2023-02-23T07:19:20;40.47;;;24.53;;
3543;SDS011;1786;52.870;9.578;2023-02-23T07:21:48;52.37;;;26.07;;
3543;SDS011;1786;52.870;9.578;2023-02-23T07:24:15;39.60;;;24.80;;
3543;SDS011;1786;52.870;9.578;2023-02-23T07:26:42;39.90;;;24.43;;
3543;SDS011;1786;52.870;9.578;2023-02-23T07:29:12;39.37;;;23.90;;
3543;SDS011;1786;52.870;9.578;2023-02-23T07:31:39;42.97;;;25.47;;
3543;SDS011;1786;52.870;9.578;2023-02-23T07:34:06;44.03;;;26.30;;
3543;SDS011;1786;52.870;9.578;2023-02-23T07:36:33;41.43;;;25.17;;
3543;SDS011;1786;52.870;9.578;2023-02-23T07:39:01;40.80;;;23.10;;
3543;SDS011;1786;52.870;9.578;2023-02-23T07:41:28;39.60;;;24.07;;
3543;SDS011;1786;52.870;9.578;2023-02-23T07:43:54;40.13;;;23.97;;
3543;SDS011;1786;52.870;9.578;2023-02-23T07:46:43;43.20;;;25.70;;
3543;SDS011;1786;52.870;9.578;2023-02-23T07:49:11;38.50;;;24.27;;
3543;SDS011;1786;52.870;9.578;2023-02-23T07:51:39;34.67;;;21.60;;
3543;SDS011;1786;52.870;9.578;2023-02-23T07:54:05;39.50;;;24.87;;
3543;SDS011;1786;52.870;9.578;2023-02-23T07:56:33;33.50;;;23.10;;
3543;SDS011;1786;52.870;9.578;2023-02-23T07:59:00;38.73;;;23.33;;
3543;SDS011;1786;52.870;9.578;2023-02-23T08:01:27;35.13;;;22.10;;
3543;SDS011;1786;52.870;9.578;2023-02-23T08:03:53;35.63;;;22.33;;
3543;SDS011;1786;52.870;9.578;2023-02-23T08:06:21;38.47;;;23.00;;
3543;SDS011;1786;52.870;9.578;2023-02-23T08:08:47;32.33;;;21.50;;
3543;SDS011;1786;52.870;9.578;2023-02-23T08:11:15;28.33;;;19.13;;
3543;SDS011;1786;52.870;9.578;2023-02-23T08:14:03;34.97;;;20.80;;
3543;SDS011;1786;52.870;9.578;2023-02-23T08:16:30;31.90;;;21.20;;
3543;SDS011;1786;52.870;9.578;2023-02-23T08:18:58;32.77;;;20.27;;
3543;SDS011;1786;52.870;9.578;2023-02-23T08:21:25;32.47;;;20.97;;
3543;SDS011;1786;52.870;9.578;2023-02-23T08:23:53;30.10;;;19.77;;
3543;SDS011;1786;52.870;9.578;2023-02-23T08:26:20;30.40;;;21.30;;
3543;SDS011;1786;52.870;9.578;2023-02-23T08:28:46;29.80;;;20.53;;
3543;SDS011;1786;52.870;9.578;2023-02-23T08:31:14;30.30;;;19.00;;
3543;SDS011;1786;52.870;9.578;2023-02-23T08:33:45;31.70;;;19.07;;
3543;SDS011;1786;52.870;9.578;2023-02-23T08:36:13;29.00;;;18.50;;
3543;SDS011;1786;52.870;9.578;2023-02-23T08:38:40;27.07;;;18.50;;
3543;SDS011;1786;52.870;9.578;2023-02-23T08:41:07;28.83;;;19.57;;
3543;SDS011;1786;52.870;9.578;2023-02-23T08:43:51;27.47;;;18.10;;
3543;SDS011;1786;52.870;9.578;2023-02-23T08:46:39;34.37;;;20.53;;
3543;SDS011;1786;52.870;9.578;2023-02-23T08:49:05;30.47;;;18.93;;
3543;SDS011;1786;52.870;9.578;2023-02-23T08:51:32;31.30;;;17.33;;
3543;SDS011;1786;52.870;9.578;2023-02-23T08:54:00;24.43;;;17.77;;
3543;SDS011;1786;52.870;9.578;2023-02-23T08:56:28;28.47;;;19.17;;
3543;SDS011;1786;52.870;9.578;2023-02-23T08:58:55;32.27;;;20.23;;
3543;SDS011;1786;52.870;9.578;2023-02-23T09:01:21;26.60;;;18.60;;
3543;SDS011;1786;52.870;9.578;2023-02-23T09:03:49;28.20;;;19.43;;
3543;SDS011;1786;52.870;9.578;2023-02-23T09:06:17;27.50;;;18.80;;
3543;SDS011;1786;52.870;9.578;2023-02-23T09:09:08;25.57;;;18.80;;
3543;SDS011;1786;52.870;9.578;2023-02-23T09:11:34;28.27;;;18.80;;
3543;SDS011;1786;52.870;9.578;2023-02-23T09:14:01;30.27;;;17.83;;
3543;SDS011;1786;52.870;9.578;2023-02-23T09:16:27;28.60;;;19.80;;
3543;SDS011;1786;52.870;9.578;2023-02-23T09:18:53;28.10;;;17.50;;
3543;SDS011;1786;52.870;9.578;2023-02-23T09:21:20;26.33;;;17.30;;
3543;SDS011;1786;52.870;9.578;2023-02-23T09:23:50;27.30;;;18.10;;
3543;SDS011;1786;52.870;9.578;2023-02-23T09:26:18;22.73;;;16.67;;
3543;SDS011;1786;52.870;9.578;2023-02-23T09:28:45;25.60;;;17.77;;
3543;SDS011;1786;52.870;9.578;2023-02-23T09:31:21;27.70;;;18.40;;
3543;SDS011;1786;52.870;9.578;2023-02-23T09:33:49;28.10;;;18.20;;
3543;SDS011;1786;52.870;9.578;2023-02-23T09:36:17;24.67;;;17.83;;
3543;SDS011;1786;52.870;9.578;2023-02-23T09:38:44;28.73;;;17.60;;
3543;SDS011;1786;52.870;9.578;2023-02-23T09:47:04;29.87;;;19.27;;
3543;SDS011;1786;52.870;9.578;2023-02-23T09:49:33;31.37;;;19.93;;
3543;SDS011;1786;52.870;9.578;2023-02-23T09:52:01;30.73;;;19.30;;
3543;SDS011;1786;52.870;9.578;2023-02-23T09:54:30;35.37;;;21.43;;
3543;SDS011;1786;52.870;9.578;2023-02-23T09:56:59;34.27;;;20.80;;
3543;SDS011;1786;52.870;9.578;2023-02-23T09:59:29;32.80;;;21.50;;
3543;SDS011;1786;52.870;9.578;2023-02-23T10:02:02;37.77;;;22.70;;
3543;SDS011;1786;52.870;9.578;2023-02-23T10:04:44;38.30;;;23.37;;
3543;SDS011;1786;52.870;9.578;2023-02-23T10:12:53;43.80;;;25.50;;
3543;SDS011;1786;52.870;9.578;2023-02-23T10:18:08;58.30;;;27.23;;
3543;SDS011;1786;52.870;9.578;2023-02-23T10:20:45;47.47;;;25.97;;
3543;SDS011;1786;52.870;9.578;2023-02-23T10:23:14;47.53;;;25.87;;
3543;SDS011;1786;52.870;9.578;2023-02-23T10:25:46;48.63;;;27.50;;
3543;SDS011;1786;52.870;9.578;2023-02-23T10:28:14;45.40;;;25.57;;
3543;SDS011;1786;52.870;9.578;2023-02-23T10:30:41;57.80;;;28.37;;
3543;SDS011;1786;52.870;9.578;2023-02-23T10:33:13;57.10;;;27.40;;
3543;SDS011;1786;52.870;9.578;2023-02-23T10:35:42;58.50;;;28.63;;
3543;SDS011;1786;52.870;9.578;2023-02-23T10:38:14;54.50;;;27.97;;
3543;SDS011;1786;52.870;9.578;2023-02-23T10:40:41;57.57;;;28.27;;
3543;SDS011;1786;52.870;9.578;2023-02-23T10:43:08;57.40;;;27.90;;
3543;SDS011;1786;52.870;9.578;2023-02-23T10:45:38;55.83;;;27.70;;
3543;SDS011;1786;52.870;9.578;2023-02-23T10:48:06;48.33;;;24.73;;
3543;SDS011;1786;52.870;9.578;2023-02-23T10:50:35;54.47;;;27.50;;
3543;SDS011;1786;52.870;9.578;2023-02-23T10:53:10;49.80;;;26.97;;
3543;SDS011;1786;52.870;9.578;2023-02-23T10:55:45;55.27;;;28.20;;
3543;SDS011;1786;52.870;9.578;2023-02-23T10:58:16;55.20;;;27.03;;
3543;SDS011;1786;52.870;9.578;2023-02-23T11:03:24;57.63;;;27.60;;
3543;SDS011;1786;52.870;9.578;2023-02-23T11:05:51;48.83;;;26.30;;
3543;SDS011;1786;52.870;9.578;2023-02-23T11:13:22;49.10;;;25.70;;
3543;SDS011;1786;52.870;9.578;2023-02-23T11:15:49;48.90;;;25.60;;
3543;SDS011;1786;52.870;9.578;2023-02-23T11:18:23;52.70;;;23.80;;
3543;SDS011;1786;52.870;9.578;2023-02-23T11:20:50;46.23;;;24.27;;
3543;SDS011;1786;52.870;9.578;2023-02-23T11:23:20;51.97;;;25.87;;
3543;SDS011;1786;52.870;9.578;2023-02-23T11:25:47;49.80;;;26.13;;
3543;SDS011;1786;52.870;9.578;2023-02-23T11:28:17;62.50;;;30.30;;
3543;SDS011;1786;52.870;9.578;2023-02-23T11:30:46;53.80;;;27.00;;
3543;SDS011;1786;52.870;9.578;2023-02-23T11:33:16;66.07;;;31.20;;
3543;SDS011;1786;52.870;9.578;2023-02-23T11:35:44;56.07;;;29.00;;
3543;SDS011;1786;52.870;9.578;2023-02-23T11:38:19;64.67;;;30.90;;
3543;SDS011;1786;52.870;9.578;2023-02-23T11:41:09;60.07;;;28.70;;
3543;SDS011;1786;52.870;9.578;2023-02-23T11:43:37;64.77;;;32.30;;
3543;SDS011;1786;52.870;9.578;2023-02-23T11:46:03;58.93;;;27.90;;
3543;SDS011;1786;52.870;9.578;2023-02-23T11:48:31;61.73;;;31.13;;
3543;SDS011;1786;52.870;9.578;2023-02-23T11:50:58;59.27;;;30.70;;
3543;SDS011;1786;52.870;9.578;2023-02-23T11:55:54;60.70;;;29.97;;
3543;SDS011;1786;52.870;9.578;2023-02-23T11:58:22;58.20;;;28.00;;
3543;SDS011;1786;52.870;9.578;2023-02-23T12:00:54;64.27;;;30.50;;
3543;SDS011;1786;52.870;9.578;2023-02-23T12:03:21;64.87;;;30.07;;
3543;SDS011;1786;52.870;9.578;2023-02-23T12:05:49;66.33;;;31.47;;
3543;SDS011;1786;52.870;9.578;2023-02-23T12:08:25;63.07;;;30.47;;
3543;SDS011;1786;52.870;9.578;2023-02-23T12:10:53;59.97;;;28.80;;
3543;SDS011;1786;52.870;9.578;2023-02-23T12:13:29;65.47;;;30.57;;
3543;SDS011;1786;52.870;9.578;2023-02-23T12:15:59;66.53;;;32.00;;
3543;SDS011;1786;52.870;9.578;2023-02-23T12:21:23;68.90;;;33.43;;
3543;SDS011;1786;52.870;9.578;2023-02-23T12:23:53;67.33;;;30.40;;
3543;SDS011;1786;52.870;9.578;2023-02-23T12:26:20;58.63;;;29.10;;
3543;SDS011;1786;52.870;9.578;2023-02-23T12:29:04;63.43;;;30.60;;
3543;SDS011;1786;52.870;9.578;2023-02-23T12:31:40;63.47;;;30.03;;
3543;SDS011;1786;52.870;9.578;2023-02-23T12:34:10;64.73;;;30.43;;
3543;SDS011;1786;52.870;9.578;2023-02-23T12:36:38;56.67;;;29.43;;
3543;SDS011;1786;52.870;9.578;2023-02-23T12:39:13;62.37;;;29.90;;
3543;SDS011;1786;52.870;9.578;2023-02-23T12:41:46;59.10;;;27.07;;
3543;SDS011;1786;52.870;9.578;2023-02-23T12:46:58;57.47;;;25.53;;
3543;SDS011;1786;52.870;9.578;2023-02-23T12:49:34;49.83;;;24.07;;
3543;SDS011;1786;52.870;9.578;2023-02-23T12:52:04;43.93;;;22.07;;
3543;SDS011;1786;52.870;9.578;2023-02-23T12:54:34;42.87;;;22.20;;
3543;SDS011;1786;52.870;9.578;2023-02-23T13:02:38;40.13;;;20.70;;
3543;SDS011;1786;52.870;9.578;2023-02-23T13:05:09;38.13;;;21.70;;
3543;SDS011;1786;52.870;9.578;2023-02-23T13:13:04;37.73;;;20.73;;
3543;SDS011;1786;52.870;9.578;2023-02-23T13:20:53;39.10;;;20.97;;
3543;SDS011;1786;52.870;9.578;2023-02-23T13:25:49;42.80;;;23.70;;
3543;SDS011;1786;52.870;9.578;2023-02-23T13:28:32;36.50;;;20.10;;
3543;SDS011;1786;52.870;9.578;2023-02-23T13:31:00;45.30;;;22.77;;
3543;SDS011;1786;52.870;9.578;2023-02-23T13:33:29;39.67;;;22.33;;
3543;SDS011;1786;52.870;9.578;2023-02-23T13:36:09;63.73;;;35.10;;
3543;SDS011;1786;52.870;9.578;2023-02-23T13:38:43;51.13;;;27.87;;
3543;SDS011;1786;52.870;9.578;2023-02-23T13:44:02;67.97;;;37.20;;
3543;SDS011;1786;52.870;9.578;2023-02-23T13:46:39;48.90;;;27.07;;
3543;SDS011;1786;52.870;9.578;2023-02-23T13:49:33;49.83;;;26.33;;
3543;SDS011;1786;52.870;9.578;2023-02-23T13:51:59;54.33;;;28.13;;
3543;SDS011;1786;52.870;9.578;2023-02-23T13:54:32;52.93;;;27.07;;
3543;SDS011;1786;52.870;9.578;2023-02-23T13:57:00;69.70;;;29.70;;
3543;SDS011;1786;52.870;9.578;2023-02-23T13:59:30;58.50;;;29.97;;
3543;SDS011;1786;52.870;9.578;2023-02-23T14:02:06;56.73;;;27.30;;
3543;SDS011;1786;52.870;9.578;2023-02-23T14:04:45;44.00;;;25.60;;
3543;SDS011;1786;52.870;9.578;2023-02-23T14:09:43;51.07;;;24.50;;
3543;SDS011;1786;52.870;9.578;2023-02-23T14:12:13;44.97;;;21.70;;
3543;SDS011;1786;52.870;9.578;2023-02-23T14:14:44;42.87;;;20.77;;
3543;SDS011;1786;52.870;9.578;2023-02-23T14:20:02;34.40;;;16.90;;
3543;SDS011;1786;52.870;9.578;2023-02-23T14:22:32;32.97;;;15.90;;
3543;SDS011;1786;52.870;9.578;2023-02-23T14:25:46;34.67;;;15.90;;
3543;SDS011;1786;52.870;9.578;2023-02-23T14:27:46;35.60;;;16.27;;
3543;SDS011;1786;52.870;9.578;2023-02-23T14:30:27;42.23;;;19.07;;
3543;SDS011;1786;52.870;9.578;2023-02-23T14:32:59;53.50;;;23.50;;
3543;SDS011;1786;52.870;9.578;2023-02-23T14:35:42;55.60;;;22.73;;
3543;SDS011;1786;52.870;9.578;2023-02-23T14:38:21;73.33;;;27.57;;
3543;SDS011;1786;52.870;9.578;2023-02-23T14:40:51;88.17;;;31.40;;
3543;SDS011;1786;52.870;9.578;2023-02-23T14:46:00;75.30;;;29.90;;
3543;SDS011;1786;52.870;9.578;2023-02-23T14:48:32;97.93;;;31.30;;
3543;SDS011;1786;52.870;9.578;2023-02-23T14:51:21;97.67;;;32.40;;
3543;SDS011;1786;52.870;9.578;2023-02-23T14:53:48;94.53;;;32.70;;
3543;SDS011;1786;52.870;9.578;2023-02-23T14:56:19;94.03;;;32.97;;
3543;SDS011;1786;52.870;9.578;2023-02-23T14:58:50;100.50;;;31.80;;
3543;SDS011;1786;52.870;9.578;2023-02-23T15:01:30;98.13;;;34.10;;
3543;SDS011;1786;52.870;9.578;2023-02-23T15:04:04;92.63;;;30.23;;
3543;SDS011;1786;52.870;9.578;2023-02-23T15:06:30;99.40;;;30.87;;
3543;SDS011;1786;52.870;9.578;2023-02-23T15:08:57;93.33;;;31.40;;
3543;SDS011;1786;52.870;9.578;2023-02-23T15:11:23;88.67;;;32.60;;
3543;SDS011;1786;52.870;9.578;2023-02-23T15:13:50;97.63;;;33.77;;
3543;SDS011;1786;52.870;9.578;2023-02-23T15:16:20;88.80;;;31.20;;
3543;SDS011;1786;52.870;9.578;2023-02-23T15:21:54;90.27;;;32.93;;
3543;SDS011;1786;52.870;9.578;2023-02-23T15:24:23;93.93;;;35.70;;
3543;SDS011;1786;52.870;9.578;2023-02-23T15:26:51;90.17;;;33.83;;
3543;SDS011;1786;52.870;9.578;2023-02-23T15:29:19;82.93;;;31.77;;
3543;SDS011;1786;52.870;9.578;2023-02-23T15:31:50;93.40;;;33.30;;
3543;SDS011;1786;52.870;9.578;2023-02-23T15:34:20;97.90;;;33.43;;
3543;SDS011;1786;52.870;9.578;2023-02-23T15:36:58;87.07;;;33.13;;
3543;SDS011;1786;52.870;9.578;2023-02-23T15:42:00;84.37;;;32.53;;
3543;SDS011;1786;52.870;9.578;2023-02-23T15:44:27;97.17;;;33.33;;
3543;SDS011;1786;52.870;9.578;2023-02-23T15:47:17;91.97;;;36.30;;
3543;SDS011;1786;52.870;9.578;2023-02-23T15:49:45;112.67;;;45.40;;
3543;SDS011;1786;52.870;9.578;2023-02-23T15:52:21;90.23;;;35.53;;
3543;SDS011;1786;52.870;9.578;2023-02-23T15:54:51;90.03;;;34.97;;
3543;SDS011;1786;52.870;9.578;2023-02-23T15:57:20;93.20;;;35.67;;
3543;SDS011;1786;52.870;9.578;2023-02-23T15:59:48;86.27;;;34.93;;
3543;SDS011;1786;52.870;9.578;2023-02-23T16:02:16;82.07;;;33.07;;
3543;SDS011;1786;52.870;9.578;2023-02-23T16:04:46;80.53;;;34.03;;
3543;SDS011;1786;52.870;9.578;2023-02-23T16:07:19;85.97;;;33.80;;
3543;SDS011;1786;52.870;9.578;2023-02-23T16:10:38;81.47;;;35.47;;
3543;SDS011;1786;52.870;9.578;2023-02-23T16:12:36;93.10;;;36.07;;
3543;SDS011;1786;52.870;9.578;2023-02-23T16:15:05;93.07;;;38.20;;
3543;SDS011;1786;52.870;9.578;2023-02-23T16:20:55;89.03;;;35.47;;
3543;SDS011;1786;52.870;9.578;2023-02-23T16:23:25;72.77;;;31.57;;
3543;SDS011;1786;52.870;9.578;2023-02-23T16:25:59;78.33;;;36.43;;
3543;SDS011;1786;52.870;9.578;2023-02-23T16:28:28;83.53;;;33.30;;
3543;SDS011;1786;52.870;9.578;2023-02-23T16:30:57;90.80;;;39.70;;
3543;SDS011;1786;52.870;9.578;2023-02-23T16:33:26;79.70;;;35.10;;
3543;SDS011;1786;52.870;9.578;2023-02-23T16:41:12;94.60;;;37.43;;
3543;SDS011;1786;52.870;9.578;2023-02-23T16:43:41;83.93;;;34.10;;
3543;SDS011;1786;52.870;9.578;2023-02-23T16:46:07;92.93;;;36.60;;
3543;SDS011;1786;52.870;9.578;2023-02-23T16:48:34;86.10;;;34.20;;
3543;SDS011;1786;52.870;9.578;2023-02-23T16:51:00;77.67;;;33.60;;
3543;SDS011;1786;52.870;9.578;2023-02-23T16:53:28;73.03;;;29.23;;